createdAt,value
2023-05-16T00:02:52.202Z,39.02
2023-05-16T00:08:14.229Z,39.09
2023-05-16T00:13:36.081Z,39.16
2023-05-16T00:18:58.179Z,39.26
2023-05-16T00:24:19.983Z,39.11
2023-05-16T00:29:41.750Z,39.24
2023-05-16T00:35:04.228Z,39.18
2023-05-16T00:40:26.334Z,38.87
2023-05-16T00:45:49.044Z,39.34
2023-05-16T00:51:11.163Z,39.11
2023-05-16T00:56:34.124Z,38.94
2023-05-16T01:01:56.811Z,39.11
2023-05-16T01:07:19.023Z,39.15
2023-05-16T01:12:58.164Z,38.84
2023-05-16T01:18:34.717Z,39.02
2023-05-16T01:24:08.820Z,39.29
2023-05-16T01:29:30.764Z,38.92
2023-05-16T01:34:53.075Z,39.10
2023-05-16T01:40:35.628Z,39.13
2023-05-16T01:46:09.651Z,38.88
2023-05-16T01:51:35.832Z,38.94
2023-05-16T01:56:58.410Z,39.17
2023-05-16T02:02:20.880Z,39.21
2023-05-16T02:07:43.744Z,38.95
2023-05-16T02:13:05.576Z,39.21
2023-05-16T02:18:30.338Z,39.24
2023-05-16T02:23:52.294Z,39.19
2023-05-16T02:29:15.394Z,39.06
2023-05-16T02:34:37.348Z,39.36
2023-05-16T02:39:59.441Z,39.39
2023-05-16T02:45:21.393Z,39.16
2023-05-16T02:50:43.440Z,39.45
2023-05-16T02:56:07.254Z,39.15
2023-05-16T03:01:29.243Z,39.22
2023-05-16T03:06:51.514Z,39.40
2023-05-16T03:12:13.419Z,39.10
2023-05-16T03:17:35.565Z,38.91
2023-05-16T03:22:57.388Z,38.90
2023-05-16T03:28:19.211Z,39.14
2023-05-16T03:33:40.979Z,39.28
2023-05-16T03:39:02.898Z,39.15
2023-05-16T03:44:24.752Z,39.38
2023-05-16T03:49:46.529Z,38.89
2023-05-16T03:55:09.508Z,39.19
2023-05-16T04:00:31.344Z,39.32
2023-05-16T04:05:53.145Z,39.27
2023-05-16T04:11:14.907Z,39.26
2023-05-16T04:16:36.709Z,39.10
2023-05-16T04:21:58.654Z,39.37
2023-05-16T04:27:20.452Z,39.05
2023-05-16T04:32:42.366Z,39.06
2023-05-16T04:38:04.969Z,39.36
2023-05-16T04:43:27.051Z,39.36
2023-05-16T04:48:49.006Z,39.07
2023-05-16T04:54:11.032Z,38.99
2023-05-16T04:59:32.833Z,39.21
2023-05-16T05:04:55.015Z,39.36
2023-05-16T05:10:16.990Z,39.03
2023-05-16T05:15:39.189Z,38.89
2023-05-16T05:21:01.082Z,38.91
2023-05-16T05:26:25.716Z,39.30
2023-05-16T05:31:47.667Z,39.15
2023-05-16T05:37:09.659Z,38.86
2023-05-16T05:42:31.430Z,38.73
2023-05-16T05:47:53.430Z,38.58
2023-05-16T05:53:15.355Z,38.27
2023-05-16T05:58:37.239Z,38.37
2023-05-16T06:04:00.153Z,38.34
2023-05-16T06:09:23.775Z,38.35
2023-05-16T06:14:45.616Z,38.17
2023-05-16T06:20:08.336Z,37.72
2023-05-16T06:25:30.644Z,37.83
2023-05-16T06:30:52.496Z,37.61
2023-05-16T06:36:14.310Z,37.95
2023-05-16T06:41:36.186Z,37.64
2023-05-16T06:46:58.146Z,37.48
2023-05-16T06:52:20.043Z,37.32
2023-05-16T06:57:41.922Z,37.33
2023-05-16T07:03:07.083Z,37.41
